sensor_id;sensor_type;location;lat;lon;timestamp;P1;durP1;ratioP1;P2;durP2;ratioP2
22268;SDS011;11303;50.772;19.670;2023-04-25T00:01:23;11.40;;;6.93;;
22268;SDS011;11303;50.772;19.670;2023-04-25T00:03:24;9.80;;;6.70;;
22268;SDS011;11303;50.772;19.670;2023-04-25T00:05:26;7.15;;;5.55;;
22268;SDS011;11303;50.772;19.670;2023-04-25T00:07:28;7.40;;;6.35;;
22268;SDS011;11303;50.772;19.670;2023-04-25T00:09:29;7.20;;;5.30;;
22268;SDS011;11303;50.772;19.670;2023-04-25T00:11:31;7.03;;;5.60;;
22268;SDS011;11303;50.772;19.670;2023-04-25T00:13:32;6.15;;;4.65;;
22268;SDS011;11303;50.772;19.670;2023-04-25T00:15:34;8.38;;;5.68;;
22268;SDS011;11303;50.772;19.670;2023-04-25T00:17:37;5.72;;;4.80;;
22268;SDS011;11303;50.772;19.670;2023-04-25T00:19:39;6.30;;;5.13;;
22268;SDS011;11303;50.772;19.670;2023-04-25T00:21:41;9.18;;;4.20;;
22268;SDS011;11303;50.772;19.670;2023-04-25T00:23:42;7.18;;;4.22;;
22268;SDS011;11303;50.772;19.670;2023-04-25T00:25:44;5.82;;;3.80;;
22268;SDS011;11303;50.772;19.670;2023-04-25T00:27:46;5.68;;;3.90;;
22268;SDS011;11303;50.772;19.670;2023-04-25T00:29:47;4.47;;;3.65;;
22268;SDS011;11303;50.772;19.670;2023-04-25T00:31:48;6.50;;;2.55;;
22268;SDS011;11303;50.772;19.670;2023-04-25T00:33:50;4.47;;;3.45;;
22268;SDS011;11303;50.772;19.670;2023-04-25T00:35:52;4.18;;;1.92;;
22268;SDS011;11303;50.772;19.670;2023-04-25T00:37:54;6.60;;;3.50;;
22268;SDS011;11303;50.772;19.670;2023-04-25T00:39:57;4.38;;;3.20;;
22268;SDS011;11303;50.772;19.670;2023-04-25T00:41:59;6.38;;;4.38;;
22268;SDS011;11303;50.772;19.670;2023-04-25T00:44:00;7.15;;;3.95;;
22268;SDS011;11303;50.772;19.670;2023-04-25T00:46:02;5.43;;;3.88;;
22268;SDS011;11303;50.772;19.670;2023-04-25T00:48:04;6.50;;;4.20;;
22268;SDS011;11303;50.772;19.670;2023-04-25T00:50:06;6.10;;;4.10;;
22268;SDS011;11303;50.772;19.670;2023-04-25T00:52:07;6.13;;;3.28;;
22268;SDS011;11303;50.772;19.670;2023-04-25T00:54:09;6.35;;;4.53;;
22268;SDS011;11303;50.772;19.670;2023-04-25T00:56:11;6.15;;;4.45;;
22268;SDS011;11303;50.772;19.670;2023-04-25T00:58:13;5.05;;;4.45;;
22268;SDS011;11303;50.772;19.670;2023-04-25T01:00:14;5.25;;;4.72;;
22268;SDS011;11303;50.772;19.670;2023-04-25T01:02:16;7.78;;;5.35;;
22268;SDS011;11303;50.772;19.670;2023-04-25T01:04:18;8.05;;;5.15;;
22268;SDS011;11303;50.772;19.670;2023-04-25T01:06:19;8.43;;;5.78;;
22268;SDS011;11303;50.772;19.670;2023-04-25T01:08:21;7.53;;;5.72;;
22268;SDS011;11303;50.772;19.670;2023-04-25T01:10:24;7.53;;;6.03;;
22268;SDS011;11303;50.772;19.670;2023-04-25T01:12:26;9.18;;;6.65;;
22268;SDS011;11303;50.772;19.670;2023-04-25T01:14:27;8.20;;;6.78;;
22268;SDS011;11303;50.772;19.670;2023-04-25T01:16:29;8.80;;;7.15;;
22268;SDS011;11303;50.772;19.670;2023-04-25T01:18:30;9.73;;;7.43;;
22268;SDS011;11303;50.772;19.670;2023-04-25T01:20:33;9.65;;;6.28;;
22268;SDS011;11303;50.772;19.670;2023-04-25T01:22:34;10.50;;;7.03;;
22268;SDS011;11303;50.772;19.670;2023-04-25T01:24:36;11.13;;;6.85;;
22268;SDS011;11303;50.772;19.670;2023-04-25T01:26:38;9.98;;;7.22;;
22268;SDS011;11303;50.772;19.670;2023-04-25T01:28:41;9.18;;;7.28;;
22268;SDS011;11303;50.772;19.670;2023-04-25T01:30:43;8.43;;;7.53;;
22268;SDS011;11303;50.772;19.670;2023-04-25T01:32:44;16.92;;;9.25;;
22268;SDS011;11303;50.772;19.670;2023-04-25T01:34:46;11.80;;;8.52;;
22268;SDS011;11303;50.772;19.670;2023-04-25T01:36:49;12.25;;;8.27;;
22268;SDS011;11303;50.772;19.670;2023-04-25T01:38:50;11.25;;;8.85;;
22268;SDS011;11303;50.772;19.670;2023-04-25T01:40:52;13.05;;;9.00;;
22268;SDS011;11303;50.772;19.670;2023-04-25T01:42:54;13.13;;;9.40;;
22268;SDS011;11303;50.772;19.670;2023-04-25T01:44:56;12.75;;;9.35;;
22268;SDS011;11303;50.772;19.670;2023-04-25T01:46:57;15.63;;;9.90;;
22268;SDS011;11303;50.772;19.670;2023-04-25T01:48:59;15.27;;;10.18;;
22268;SDS011;11303;50.772;19.670;2023-04-25T01:51:00;14.40;;;9.27;;
22268;SDS011;11303;50.772;19.670;2023-04-25T01:53:02;14.50;;;10.65;;
22268;SDS011;11303;50.772;19.670;2023-04-25T01:55:03;18.08;;;11.25;;
22268;SDS011;11303;50.772;19.670;2023-04-25T01:57:05;14.73;;;11.23;;
22268;SDS011;11303;50.772;19.670;2023-04-25T01:59:06;17.05;;;11.07;;
22268;SDS011;11303;50.772;19.670;2023-04-25T02:01:08;16.38;;;10.88;;
22268;SDS011;11303;50.772;19.670;2023-04-25T02:03:09;14.60;;;11.20;;
22268;SDS011;11303;50.772;19.670;2023-04-25T02:05:11;16.77;;;11.60;;
22268;SDS011;11303;50.772;19.670;2023-04-25T02:07:12;18.58;;;11.43;;
22268;SDS011;11303;50.772;19.670;2023-04-25T02:09:14;19.05;;;11.63;;
22268;SDS011;11303;50.772;19.670;2023-04-25T02:11:15;19.48;;;12.05;;
22268;SDS011;11303;50.772;19.670;2023-04-25T02:13:17;19.80;;;12.35;;
22268;SDS011;11303;50.772;19.670;2023-04-25T02:15:18;18.75;;;12.43;;
22268;SDS011;11303;50.772;19.670;2023-04-25T02:17:20;20.58;;;13.52;;
22268;SDS011;11303;50.772;19.670;2023-04-25T02:19:22;20.65;;;13.80;;
22268;SDS011;11303;50.772;19.670;2023-04-25T02:21:23;22.35;;;14.55;;
22268;SDS011;11303;50.772;19.670;2023-04-25T02:23:25;22.30;;;13.55;;
22268;SDS011;11303;50.772;19.670;2023-04-25T02:25:26;20.90;;;13.27;;
22268;SDS011;11303;50.772;19.670;2023-04-25T02:27:28;21.48;;;14.27;;
22268;SDS011;11303;50.772;19.670;2023-04-25T02:29:29;24.45;;;14.15;;
22268;SDS011;11303;50.772;19.670;2023-04-25T02:31:31;21.10;;;13.45;;
22268;SDS011;11303;50.772;19.670;2023-04-25T02:33:32;21.55;;;14.32;;
22268;SDS011;11303;50.772;19.670;2023-04-25T02:35:34;23.83;;;14.57;;
22268;SDS011;11303;50.772;19.670;2023-04-25T02:37:38;18.75;;;12.30;;
22268;SDS011;11303;50.772;19.670;2023-04-25T02:39:40;22.08;;;13.35;;
22268;SDS011;11303;50.772;19.670;2023-04-25T02:41:41;26.13;;;13.68;;
22268;SDS011;11303;50.772;19.670;2023-04-25T02:43:43;21.40;;;14.50;;
22268;SDS011;11303;50.772;19.670;2023-04-25T02:45:44;21.83;;;14.73;;
22268;SDS011;11303;50.772;19.670;2023-04-25T02:47:46;22.85;;;14.02;;
22268;SDS011;11303;50.772;19.670;2023-04-25T02:49:47;17.95;;;12.18;;
22268;SDS011;11303;50.772;19.670;2023-04-25T02:51:49;19.48;;;13.15;;
22268;SDS011;11303;50.772;19.670;2023-04-25T02:53:50;20.52;;;13.60;;
22268;SDS011;11303;50.772;19.670;2023-04-25T02:55:52;21.27;;;13.57;;
22268;SDS011;11303;50.772;19.670;2023-04-25T02:57:54;20.27;;;13.45;;
22268;SDS011;11303;50.772;19.670;2023-04-25T02:59:56;20.98;;;13.10;;
22268;SDS011;11303;50.772;19.670;2023-04-25T03:01:58;21.95;;;13.73;;
22268;SDS011;11303;50.772;19.670;2023-04-25T03:03:59;18.58;;;11.75;;
22268;SDS011;11303;50.772;19.670;2023-04-25T03:06:00;18.30;;;11.50;;
22268;SDS011;11303;50.772;19.670;2023-04-25T03:08:02;19.23;;;13.35;;
22268;SDS011;11303;50.772;19.670;2023-04-25T03:10:04;16.35;;;11.85;;
22268;SDS011;11303;50.772;19.670;2023-04-25T03:12:06;17.00;;;10.45;;
22268;SDS011;11303;50.772;19.670;2023-04-25T03:14:08;10.38;;;7.78;;
22268;SDS011;11303;50.772;19.670;2023-04-25T03:16:09;11.48;;;8.25;;
22268;SDS011;11303;50.772;19.670;2023-04-25T03:18:11;11.18;;;8.10;;
22268;SDS011;11303;50.772;19.670;2023-04-25T03:20:12;13.93;;;8.38;;
22268;SDS011;11303;50.772;19.670;2023-04-25T03:22:14;17.55;;;10.73;;
22268;SDS011;11303;50.772;19.670;2023-04-25T03:24:16;11.63;;;8.55;;
22268;SDS011;11303;50.772;19.670;2023-04-25T03:26:17;19.05;;;10.10;;
22268;SDS011;11303;50.772;19.670;2023-04-25T03:28:18;16.05;;;9.77;;
22268;SDS011;11303;50.772;19.670;2023-04-25T03:30:21;13.57;;;9.05;;
22268;SDS011;11303;50.772;19.670;2023-04-25T03:32:22;15.48;;;10.77;;
22268;SDS011;11303;50.772;19.670;2023-04-25T03:34:24;17.50;;;10.55;;
22268;SDS011;11303;50.772;19.670;2023-04-25T03:36:25;16.42;;;11.23;;
22268;SDS011;11303;50.772;19.670;2023-04-25T03:38:26;18.05;;;12.20;;
22268;SDS011;11303;50.772;19.670;2023-04-25T03:40:28;17.98;;;11.13;;
22268;SDS011;11303;50.772;19.670;2023-04-25T03:42:29;16.80;;;10.57;;
22268;SDS011;11303;50.772;19.670;2023-04-25T03:44:31;15.60;;;11.25;;
22268;SDS011;11303;50.772;19.670;2023-04-25T03:46:33;15.15;;;10.98;;
22268;SDS011;11303;50.772;19.670;2023-04-25T03:48:34;15.90;;;10.30;;
22268;SDS011;11303;50.772;19.670;2023-04-25T03:50:36;14.00;;;9.57;;
22268;SDS011;11303;50.772;19.670;2023-04-25T03:52:37;14.30;;;10.10;;
22268;SDS011;11303;50.772;19.670;2023-04-25T03:54:38;14.00;;;10.18;;
22268;SDS011;11303;50.772;19.670;2023-04-25T03:56:40;16.23;;;11.65;;
22268;SDS011;11303;50.772;19.670;2023-04-25T03:58:41;17.77;;;11.70;;
22268;SDS011;11303;50.772;19.670;2023-04-25T04:00:43;19.02;;;11.95;;
22268;SDS011;11303;50.772;19.670;2023-04-25T04:02:44;13.85;;;9.93;;
22268;SDS011;11303;50.772;19.670;2023-04-25T04:04:46;18.02;;;11.77;;
22268;SDS011;11303;50.772;19.670;2023-04-25T04:06:48;16.92;;;11.30;;
22268;SDS011;11303;50.772;19.670;2023-04-25T04:08:49;15.02;;;10.27;;
22268;SDS011;11303;50.772;19.670;2023-04-25T04:10:51;15.48;;;10.85;;
22268;SDS011;11303;50.772;19.670;2023-04-25T04:12:52;15.80;;;11.07;;
22268;SDS011;11303;50.772;19.670;2023-04-25T04:14:54;13.82;;;10.15;;
22268;SDS011;11303;50.772;19.670;2023-04-25T04:16:55;16.45;;;10.57;;
22268;SDS011;11303;50.772;19.670;2023-04-25T04:18:57;12.00;;;9.63;;
22268;SDS011;11303;50.772;19.670;2023-04-25T04:20:58;14.80;;;9.98;;
22268;SDS011;11303;50.772;19.670;2023-04-25T04:23:00;16.05;;;10.13;;
22268;SDS011;11303;50.772;19.670;2023-04-25T04:25:02;13.80;;;9.32;;
22268;SDS011;11303;50.772;19.670;2023-04-25T04:27:04;13.07;;;9.18;;
22268;SDS011;11303;50.772;19.670;2023-04-25T04:29:05;13.32;;;9.30;;
22268;SDS011;11303;50.772;19.670;2023-04-25T04:31:08;12.45;;;8.82;;
22268;SDS011;11303;50.772;19.670;2023-04-25T04:33:10;9.50;;;7.22;;
22268;SDS011;11303;50.772;19.670;2023-04-25T04:35:12;8.82;;;6.93;;
22268;SDS011;11303;50.772;19.670;2023-04-25T04:37:14;7.72;;;6.03;;
22268;SDS011;11303;50.772;19.670;2023-04-25T04:39:15;8.27;;;6.03;;
22268;SDS011;11303;50.772;19.670;2023-04-25T04:41:17;7.85;;;6.47;;
22268;SDS011;11303;50.772;19.670;2023-04-25T04:43:18;9.07;;;5.90;;
22268;SDS011;11303;50.772;19.670;2023-04-25T04:45:20;8.82;;;5.10;;
22268;SDS011;11303;50.772;19.670;2023-04-25T04:47:21;8.55;;;6.07;;
22268;SDS011;11303;50.772;19.670;2023-04-25T04:49:24;7.03;;;5.43;;
22268;SDS011;11303;50.772;19.670;2023-04-25T04:51:26;8.55;;;5.00;;
22268;SDS011;11303;50.772;19.670;2023-04-25T04:53:27;7.57;;;4.78;;
22268;SDS011;11303;50.772;19.670;2023-04-25T04:55:29;7.05;;;5.38;;
22268;SDS011;11303;50.772;19.670;2023-04-25T04:57:30;6.00;;;4.95;;
22268;SDS011;11303;50.772;19.670;2023-04-25T04:59:32;6.05;;;4.50;;
22268;SDS011;11303;50.772;19.670;2023-04-25T05:01:33;5.47;;;4.32;;
22268;SDS011;11303;50.772;19.670;2023-04-25T05:03:38;6.82;;;4.10;;
22268;SDS011;11303;50.772;19.670;2023-04-25T05:05:39;7.43;;;4.38;;
22268;SDS011;11303;50.772;19.670;2023-04-25T05:07:41;4.80;;;4.22;;
22268;SDS011;11303;50.772;19.670;2023-04-25T05:09:42;8.90;;;3.80;;
22268;SDS011;11303;50.772;19.670;2023-04-25T05:11:44;5.65;;;4.63;;
22268;SDS011;11303;50.772;19.670;2023-04-25T05:13:45;6.47;;;4.53;;
22268;SDS011;11303;50.772;19.670;2023-04-25T05:15:47;6.55;;;3.97;;
22268;SDS011;11303;50.772;19.670;2023-04-25T05:17:48;4.93;;;4.20;;
22268;SDS011;11303;50.772;19.670;2023-04-25T05:19:50;10.10;;;4.10;;
22268;SDS011;11303;50.772;19.670;2023-04-25T05:21:51;6.03;;;4.40;;
22268;SDS011;11303;50.772;19.670;2023-04-25T05:23:53;5.97;;;4.50;;
22268;SDS011;11303;50.772;19.670;2023-04-25T05:25:54;6.53;;;4.40;;
22268;SDS011;11303;50.772;19.670;2023-04-25T05:27:56;5.60;;;4.03;;
22268;SDS011;11303;50.772;19.670;2023-04-25T05:29:58;6.75;;;4.38;;
22268;SDS011;11303;50.772;19.670;2023-04-25T05:31:59;7.50;;;4.75;;
22268;SDS011;11303;50.772;19.670;2023-04-25T05:34:00;7.40;;;4.75;;
22268;SDS011;11303;50.772;19.670;2023-04-25T05:36:02;5.95;;;4.43;;
22268;SDS011;11303;50.772;19.670;2023-04-25T05:38:04;9.45;;;4.78;;
22268;SDS011;11303;50.772;19.670;2023-04-25T05:40:06;10.00;;;4.97;;
22268;SDS011;11303;50.772;19.670;2023-04-25T05:42:07;6.10;;;4.95;;
22268;SDS011;11303;50.772;19.670;2023-04-25T05:44:09;5.85;;;4.53;;
22268;SDS011;11303;50.772;19.670;2023-04-25T05:46:11;8.10;;;4.78;;
22268;SDS011;11303;50.772;19.670;2023-04-25T05:48:12;8.25;;;5.32;;
22268;SDS011;11303;50.772;19.670;2023-04-25T05:50:14;9.55;;;5.00;;
22268;SDS011;11303;50.772;19.670;2023-04-25T05:52:16;7.97;;;5.20;;
22268;SDS011;11303;50.772;19.670;2023-04-25T05:54:17;8.52;;;4.75;;
22268;SDS011;11303;50.772;19.670;2023-04-25T05:56:19;6.53;;;4.47;;
22268;SDS011;11303;50.772;19.670;2023-04-25T05:58:20;8.27;;;5.05;;
22268;SDS011;11303;50.772;19.670;2023-04-25T06:00:21;7.65;;;5.10;;
22268;SDS011;11303;50.772;19.670;2023-04-25T06:02:24;4.60;;;4.20;;
22268;SDS011;11303;50.772;19.670;2023-04-25T06:04:25;5.70;;;4.20;;
22268;SDS011;11303;50.772;19.670;2023-04-25T06:06:27;6.28;;;4.60;;
22268;SDS011;11303;50.772;19.670;2023-04-25T06:08:29;5.82;;;4.60;;
22268;SDS011;11303;50.772;19.670;2023-04-25T06:10:30;5.95;;;4.32;;
22268;SDS011;11303;50.772;19.670;2023-04-25T06:12:32;6.43;;;4.43;;
22268;SDS011;11303;50.772;19.670;2023-04-25T06:14:34;6.90;;;4.47;;
22268;SDS011;11303;50.772;19.670;2023-04-25T06:16:36;8.35;;;4.35;;
22268;SDS011;11303;50.772;19.670;2023-04-25T06:18:37;5.63;;;4.22;;
22268;SDS011;11303;50.772;19.670;2023-04-25T06:20:39;10.52;;;4.75;;
22268;SDS011;11303;50.772;19.670;2023-04-25T06:22:40;8.30;;;4.45;;
22268;SDS011;11303;50.772;19.670;2023-04-25T06:24:42;6.53;;;4.15;;
22268;SDS011;11303;50.772;19.670;2023-04-25T06:26:43;8.45;;;4.70;;
22268;SDS011;11303;50.772;19.670;2023-04-25T06:28:45;8.18;;;4.38;;
22268;SDS011;11303;50.772;19.670;2023-04-25T06:30:46;7.30;;;4.60;;
22268;SDS011;11303;50.772;19.670;2023-04-25T06:32:48;6.22;;;4.90;;
22268;SDS011;11303;50.772;19.670;2023-04-25T06:34:50;6.35;;;4.30;;
22268;SDS011;11303;50.772;19.670;2023-04-25T06:36:51;6.97;;;3.70;;
22268;SDS011;11303;50.772;19.670;2023-04-25T06:38:53;10.07;;;4.28;;
22268;SDS011;11303;50.772;19.670;2023-04-25T06:40:55;9.00;;;5.25;;
22268;SDS011;11303;50.772;19.670;2023-04-25T06:42:57;4.72;;;4.25;;
22268;SDS011;11303;50.772;19.670;2023-04-25T06:44:58;5.20;;;4.53;;
22268;SDS011;11303;50.772;19.670;2023-04-25T06:47:00;5.22;;;4.30;;
22268;SDS011;11303;50.772;19.670;2023-04-25T06:49:01;6.68;;;3.90;;
22268;SDS011;11303;50.772;19.670;2023-04-25T06:51:03;7.15;;;4.22;;
22268;SDS011;11303;50.772;19.670;2023-04-25T06:53:04;4.78;;;4.00;;
22268;SDS011;11303;50.772;19.670;2023-04-25T06:55:06;4.53;;;3.72;;
22268;SDS011;11303;50.772;19.670;2023-04-25T06:57:08;4.95;;;4.20;;
22268;SDS011;11303;50.772;19.670;2023-04-25T06:59:10;5.43;;;4.00;;
22268;SDS011;11303;50.772;19.670;2023-04-25T07:01:11;6.78;;;4.57;;
22268;SDS011;11303;50.772;19.670;2023-04-25T07:03:13;6.18;;;4.50;;
22268;SDS011;11303;50.772;19.670;2023-04-25T07:05:14;5.90;;;4.78;;
22268;SDS011;11303;50.772;19.670;2023-04-25T07:07:19;7.03;;;4.57;;
22268;SDS011;11303;50.772;19.670;2023-04-25T07:09:21;7.22;;;4.78;;
22268;SDS011;11303;50.772;19.670;2023-04-25T07:11:23;7.53;;;4.35;;
22268;SDS011;11303;50.772;19.670;2023-04-25T07:13:24;6.05;;;4.40;;
22268;SDS011;11303;50.772;19.670;2023-04-25T07:15:26;7.22;;;4.93;;
22268;SDS011;11303;50.772;19.670;2023-04-25T07:17:27;7.07;;;5.10;;
22268;SDS011;11303;50.772;19.670;2023-04-25T07:19:29;6.95;;;4.38;;
22268;SDS011;11303;50.772;19.670;2023-04-25T07:21:30;7.15;;;4.32;;
22268;SDS011;11303;50.772;19.670;2023-04-25T07:23:32;5.55;;;4.63;;
22268;SDS011;11303;50.772;19.670;2023-04-25T07:25:33;5.55;;;4.63;;
22268;SDS011;11303;50.772;19.670;2023-04-25T07:27:36;6.60;;;4.57;;
22268;SDS011;11303;50.772;19.670;2023-04-25T07:29:39;6.45;;;5.13;;
22268;SDS011;11303;50.772;19.670;2023-04-25T07:31:41;7.07;;;5.13;;
22268;SDS011;11303;50.772;19.670;2023-04-25T07:33:43;7.85;;;4.60;;
22268;SDS011;11303;50.772;19.670;2023-04-25T07:35:44;5.93;;;5.05;;
22268;SDS011;11303;50.772;19.670;2023-04-25T07:37:45;6.22;;;4.47;;
22268;SDS011;11303;50.772;19.670;2023-04-25T07:39:48;5.90;;;5.05;;
22268;SDS011;11303;50.772;19.670;2023-04-25T07:41:49;9.05;;;5.45;;
22268;SDS011;11303;50.772;19.670;2023-04-25T07:43:53;8.00;;;5.93;;
22268;SDS011;11303;50.772;19.670;2023-04-25T07:45:55;6.53;;;4.53;;
22268;SDS011;11303;50.772;19.670;2023-04-25T07:47:57;5.53;;;4.70;;
22268;SDS011;11303;50.772;19.670;2023-04-25T07:49:59;9.10;;;6.43;;
22268;SDS011;11303;50.772;19.670;2023-04-25T07:52:02;8.32;;;5.75;;
22268;SDS011;11303;50.772;19.670;2023-04-25T07:54:03;8.85;;;5.43;;
22268;SDS011;11303;50.772;19.670;2023-04-25T07:56:06;7.85;;;5.07;;
22268;SDS011;11303;50.772;19.670;2023-04-25T07:58:08;6.28;;;4.78;;
22268;SDS011;11303;50.772;19.670;2023-04-25T08:00:11;6.30;;;4.60;;
22268;SDS011;11303;50.772;19.670;2023-04-25T08:02:12;9.90;;;6.32;;
22268;SDS011;11303;50.772;19.670;2023-04-25T08:04:14;7.03;;;5.07;;
22268;SDS011;11303;50.772;19.670;2023-04-25T08:06:16;15.25;;;11.10;;
22268;SDS011;11303;50.772;19.670;2023-04-25T08:08:18;5.63;;;4.90;;
22268;SDS011;11303;50.772;19.670;2023-04-25T08:10:20;7.20;;;5.80;;
22268;SDS011;11303;50.772;19.670;2023-04-25T08:12:21;9.60;;;5.38;;
22268;SDS011;11303;50.772;19.670;2023-04-25T08:14:23;9.07;;;5.50;;
22268;SDS011;11303;50.772;19.670;2023-04-25T08:16:25;6.47;;;4.13;;
22268;SDS011;11303;50.772;19.670;2023-04-25T08:18:26;6.68;;;4.90;;
22268;SDS011;11303;50.772;19.670;2023-04-25T08:20:28;8.43;;;6.00;;
22268;SDS011;11303;50.772;19.670;2023-04-25T08:22:30;9.32;;;5.20;;
22268;SDS011;11303;50.772;19.670;2023-04-25T08:24:31;8.15;;;3.95;;
22268;SDS011;11303;50.772;19.670;2023-04-25T08:26:33;6.40;;;4.80;;
22268;SDS011;11303;50.772;19.670;2023-04-25T08:28:35;6.10;;;4.50;;
22268;SDS011;11303;50.772;19.670;2023-04-25T08:30:37;5.13;;;3.92;;
22268;SDS011;11303;50.772;19.670;2023-04-25T08:32:38;6.30;;;4.75;;
22268;SDS011;11303;50.772;19.670;2023-04-25T08:34:40;6.15;;;4.43;;
22268;SDS011;11303;50.772;19.670;2023-04-25T08:36:43;5.75;;;4.75;;
22268;SDS011;11303;50.772;19.670;2023-04-25T08:38:44;6.80;;;5.38;;
22268;SDS011;11303;50.772;19.670;2023-04-25T08:40:48;13.60;;;8.13;;
22268;SDS011;11303;50.772;19.670;2023-04-25T08:42:50;12.50;;;7.55;;
22268;SDS011;11303;50.772;19.670;2023-04-25T08:44:52;7.20;;;5.00;;
22268;SDS011;11303;50.772;19.670;2023-04-25T08:46:54;6.72;;;5.13;;
22268;SDS011;11303;50.772;19.670;2023-04-25T08:49:01;8.40;;;6.07;;
22268;SDS011;11303;50.772;19.670;2023-04-25T08:51:03;7.10;;;4.70;;
22268;SDS011;11303;50.772;19.670;2023-04-25T08:53:08;5.28;;;4.35;;
22268;SDS011;11303;50.772;19.670;2023-04-25T08:55:11;7.50;;;5.65;;
22268;SDS011;11303;50.772;19.670;2023-04-25T08:57:13;7.93;;;4.82;;
22268;SDS011;11303;50.772;19.670;2023-04-25T08:59:16;5.50;;;4.60;;
22268;SDS011;11303;50.772;19.670;2023-04-25T09:01:18;7.05;;;4.95;;
22268;SDS011;11303;50.772;19.670;2023-04-25T09:03:20;7.75;;;5.72;;
22268;SDS011;11303;50.772;19.670;2023-04-25T09:05:22;8.98;;;5.25;;
22268;SDS011;11303;50.772;19.670;2023-04-25T09:07:24;9.75;;;5.32;;
22268;SDS011;11303;50.772;19.670;2023-04-25T09:09:27;5.82;;;4.57;;
22268;SDS011;11303;50.772;19.670;2023-04-25T09:11:28;10.90;;;5.90;;
22268;SDS011;11303;50.772;19.670;2023-04-25T09:13:30;11.15;;;6.20;;
22268;SDS011;11303;50.772;19.670;2023-04-25T09:15:32;9.55;;;4.97;;
22268;SDS011;11303;50.772;19.670;2023-04-25T09:17:34;8.48;;;5.07;;
22268;SDS011;11303;50.772;19.670;2023-04-25T09:19:35;5.10;;;4.07;;
22268;SDS011;11303;50.772;19.670;2023-04-25T09:21:42;7.07;;;4.43;;
22268;SDS011;11303;50.772;19.670;2023-04-25T09:23:44;4.80;;;3.72;;
22268;SDS011;11303;50.772;19.670;2023-04-25T09:25:47;14.25;;;7.57;;
22268;SDS011;11303;50.772;19.670;2023-04-25T09:27:49;7.10;;;4.40;;
22268;SDS011;11303;50.772;19.670;2023-04-25T09:29:56;9.82;;;4.47;;
22268;SDS011;11303;50.772;19.670;2023-04-25T09:34:12;9.00;;;4.90;;
22268;SDS011;11303;50.772;19.670;2023-04-25T09:36:16;16.85;;;7.53;;
22268;SDS011;11303;50.772;19.670;2023-04-25T09:38:18;12.55;;;6.70;;
22268;SDS011;11303;50.772;19.670;2023-04-25T09:40:20;9.23;;;6.10;;
22268;SDS011;11303;50.772;19.670;2023-04-25T09:42:23;6.07;;;4.47;;
22268;SDS011;11303;50.772;19.670;2023-04-25T09:44:25;9.23;;;4.38;;
22268;SDS011;11303;50.772;19.670;2023-04-25T09:46:32;8.88;;;5.75;;
22268;SDS011;11303;50.772;19.670;2023-04-25T09:48:33;16.30;;;10.10;;
22268;SDS011;11303;50.772;19.670;2023-04-25T09:50:35;11.73;;;7.85;;
22268;SDS011;11303;50.772;19.670;2023-04-25T09:52:37;16.05;;;9.25;;
22268;SDS011;11303;50.772;19.670;2023-04-25T09:54:38;13.73;;;7.72;;
22268;SDS011;11303;50.772;19.670;2023-04-25T09:56:40;15.60;;;8.48;;
22268;SDS011;11303;50.772;19.670;2023-04-25T09:58:42;9.63;;;5.38;;
22268;SDS011;11303;50.772;19.670;2023-04-25T10:00:44;31.58;;;18.13;;
22268;SDS011;11303;50.772;19.670;2023-04-25T10:02:46;33.22;;;17.00;;
22268;SDS011;11303;50.772;19.670;2023-04-25T10:04:49;21.83;;;12.90;;
22268;SDS011;11303;50.772;19.670;2023-04-25T10:06:53;22.85;;;13.32;;
22268;SDS011;11303;50.772;19.670;2023-04-25T10:08:56;8.75;;;5.57;;
22268;SDS011;11303;50.772;19.670;2023-04-25T10:10:59;11.60;;;8.10;;
22268;SDS011;11303;50.772;19.670;2023-04-25T10:13:03;9.05;;;6.45;;
22268;SDS011;11303;50.772;19.670;2023-04-25T10:15:04;21.77;;;14.00;;
22268;SDS011;11303;50.772;19.670;2023-04-25T10:17:06;23.17;;;15.20;;
22268;SDS011;11303;50.772;19.670;2023-04-25T10:19:09;10.90;;;8.75;;
22268;SDS011;11303;50.772;19.670;2023-04-25T10:21:11;9.05;;;5.43;;
22268;SDS011;11303;50.772;19.670;2023-04-25T10:23:13;7.90;;;5.60;;
22268;SDS011;11303;50.772;19.670;2023-04-25T10:25:16;7.82;;;5.72;;
22268;SDS011;11303;50.772;19.670;2023-04-25T10:27:18;7.30;;;6.53;;
22268;SDS011;11303;50.772;19.670;2023-04-25T10:29:23;5.30;;;4.20;;
22268;SDS011;11303;50.772;19.670;2023-04-25T10:31:25;9.15;;;5.57;;
22268;SDS011;11303;50.772;19.670;2023-04-25T10:33:37;6.32;;;3.50;;
22268;SDS011;11303;50.772;19.670;2023-04-25T10:35:39;6.10;;;3.63;;
22268;SDS011;11303;50.772;19.670;2023-04-25T10:40:08;7.72;;;4.57;;
22268;SDS011;11303;50.772;19.670;2023-04-25T10:42:10;6.85;;;5.63;;
22268;SDS011;11303;50.772;19.670;2023-04-25T10:44:12;6.20;;;4.72;;
22268;SDS011;11303;50.772;19.670;2023-04-25T10:46:15;4.72;;;3.20;;
22268;SDS011;11303;50.772;19.670;2023-04-25T10:48:34;4.63;;;2.90;;
22268;SDS011;11303;50.772;19.670;2023-04-25T10:50:39;6.55;;;4.20;;
22268;SDS011;11303;50.772;19.670;2023-04-25T10:52:41;4.45;;;3.30;;
22268;SDS011;11303;50.772;19.670;2023-04-25T10:56:44;5.22;;;3.35;;
22268;SDS011;11303;50.772;19.670;2023-04-25T10:58:45;7.65;;;4.05;;
22268;SDS011;11303;50.772;19.670;2023-04-25T11:00:49;7.88;;;5.00;;
22268;SDS011;11303;50.772;19.670;2023-04-25T11:02:57;11.82;;;4.90;;
22268;SDS011;11303;50.772;19.670;2023-04-25T11:04:59;5.30;;;3.60;;
22268;SDS011;11303;50.772;19.670;2023-04-25T11:09:11;14.93;;;7.07;;
22268;SDS011;11303;50.772;19.670;2023-04-25T11:11:19;4.70;;;3.53;;
22268;SDS011;11303;50.772;19.670;2023-04-25T11:13:20;4.60;;;3.30;;
22268;SDS011;11303;50.772;19.670;2023-04-25T11:15:22;4.88;;;3.08;;
22268;SDS011;11303;50.772;19.670;2023-04-25T11:17:24;5.97;;;3.70;;
22268;SDS011;11303;50.772;19.670;2023-04-25T11:19:27;7.38;;;3.90;;
22268;SDS011;11303;50.772;19.670;2023-04-25T11:21:30;6.70;;;3.60;;
22268;SDS011;11303;50.772;19.670;2023-04-25T11:23:32;5.95;;;3.03;;
22268;SDS011;11303;50.772;19.670;2023-04-25T11:25:34;6.95;;;3.85;;
22268;SDS011;11303;50.772;19.670;2023-04-25T11:29:52;4.70;;;3.28;;
22268;SDS011;11303;50.772;19.670;2023-04-25T11:31:54;5.80;;;3.70;;
22268;SDS011;11303;50.772;19.670;2023-04-25T11:33:59;5.75;;;3.53;;
22268;SDS011;11303;50.772;19.670;2023-04-25T11:36:01;5.65;;;3.90;;
22268;SDS011;11303;50.772;19.670;2023-04-25T11:38:02;6.85;;;4.22;;
22268;SDS011;11303;50.772;19.670;2023-04-25T11:40:04;9.02;;;6.63;;
22268;SDS011;11303;50.772;19.670;2023-04-25T11:42:07;5.53;;;4.15;;
22268;SDS011;11303;50.772;19.670;2023-04-25T11:44:17;12.40;;;8.13;;
22268;SDS011;11303;50.772;19.670;2023-04-25T11:46:18;15.48;;;10.50;;
22268;SDS011;11303;50.772;19.670;2023-04-25T11:48:21;25.70;;;14.88;;
22268;SDS011;11303;50.772;19.670;2023-04-25T11:50:27;13.93;;;6.65;;
22268;SDS011;11303;50.772;19.670;2023-04-25T11:52:36;11.48;;;7.90;;
22268;SDS011;11303;50.772;19.670;2023-04-25T11:54:38;6.43;;;4.20;;
22268;SDS011;11303;50.772;19.670;2023-04-25T11:56:42;8.73;;;5.55;;
22268;SDS011;11303;50.772;19.670;2023-04-25T11:58:57;5.20;;;3.17;;
22268;SDS011;11303;50.772;19.670;2023-04-25T12:00:58;5.07;;;3.28;;
22268;SDS011;11303;50.772;19.670;2023-04-25T12:03:00;4.35;;;3.55;;
22268;SDS011;11303;50.772;19.670;2023-04-25T12:05:07;7.95;;;4.50;;
22268;SDS011;11303;50.772;19.670;2023-04-25T12:07:29;5.85;;;3.85;;
22268;SDS011;11303;50.772;19.670;2023-04-25T12:09:32;8.32;;;4.85;;
22268;SDS011;11303;50.772;19.670;2023-04-25T12:11:43;9.05;;;4.35;;